sensor_id;sensor_type;location;lat;lon;timestamp;pressure;altitude;pressure_sealevel;temperature;humidity
50242;BME280;36126;43.222;27.874;2022-08-03T00:01:55;101084.97;;;20.97;100.00
50242;BME280;36126;43.222;27.874;2022-08-03T00:04:20;101051.97;;;20.92;100.00
50242;BME280;36126;43.222;27.874;2022-08-03T00:06:46;101087.47;;;21.03;100.00
50242;BME280;36126;43.222;27.874;2022-08-03T00:09:11;101073.56;;;21.07;100.00
50242;BME280;36126;43.222;27.874;2022-08-03T00:11:37;101087.25;;;21.24;100.00
50242;BME280;36126;43.222;27.874;2022-08-03T00:14:04;101091.13;;;21.04;100.00
50242;BME280;36126;43.222;27.874;2022-08-03T00:16:30;101092.59;;;20.96;100.00
50242;BME280;36126;43.222;27.874;2022-08-03T00:18:55;101091.28;;;21.13;100.00
50242;BME280;36126;43.222;27.874;2022-08-03T00:21:21;101076.94;;;21.09;100.00
50242;BME280;36126;43.222;27.874;2022-08-03T00:23:47;101096.06;;;21.17;100.00
50242;BME280;36126;43.222;27.874;2022-08-03T00:26:12;101065.81;;;21.18;100.00
50242;BME280;36126;43.222;27.874;2022-08-03T00:28:38;101076.94;;;21.33;100.00
50242;BME280;36126;43.222;27.874;2022-08-03T00:31:03;101082.81;;;21.42;100.00
50242;BME280;36126;43.222;27.874;2022-08-03T00:33:29;101070.47;;;21.33;100.00
50242;BME280;36126;43.222;27.874;2022-08-03T00:35:55;101069.28;;;20.85;100.00
50242;BME280;36126;43.222;27.874;2022-08-03T00:38:20;101057.97;;;20.85;100.00
50242;BME280;36126;43.222;27.874;2022-08-03T00:40:46;101054.84;;;20.87;100.00
50242;BME280;36126;43.222;27.874;2022-08-03T00:43:11;101084.94;;;21.02;100.00
50242;BME280;36126;43.222;27.874;2022-08-03T00:45:39;101080.00;;;21.13;100.00
50242;BME280;36126;43.222;27.874;2022-08-03T00:48:06;101095.78;;;21.19;100.00
50242;BME280;36126;43.222;27.874;2022-08-03T00:50:34;101089.69;;;21.06;100.00
50242;BME280;36126;43.222;27.874;2022-08-03T00:53:02;101095.72;;;20.95;100.00
50242;BME280;36126;43.222;27.874;2022-08-03T00:55:29;101096.91;;;20.88;100.00
50242;BME280;36126;43.222;27.874;2022-08-03T00:57:55;101072.25;;;20.65;100.00
50242;BME280;36126;43.222;27.874;2022-08-03T01:00:24;101092.75;;;20.81;100.00
50242;BME280;36126;43.222;27.874;2022-08-03T01:02:51;101086.75;;;20.87;100.00
50242;BME280;36126;43.222;27.874;2022-08-03T01:05:17;101075.03;;;20.70;100.00
50242;BME280;36126;43.222;27.874;2022-08-03T01:08:03;101086.13;;;20.56;100.00
50242;BME280;36126;43.222;27.874;2022-08-03T01:13:03;101090.34;;;20.19;100.00
50242;BME280;36126;43.222;27.874;2022-08-03T01:18:31;101093.03;;;19.95;100.00
50242;BME280;36126;43.222;27.874;2022-08-03T01:21:04;101078.47;;;19.72;100.00
50242;BME280;36126;43.222;27.874;2022-08-03T01:31:58;101092.22;;;20.34;100.00
50242;BME280;36126;43.222;27.874;2022-08-03T01:34:28;101085.44;;;20.35;100.00
50242;BME280;36126;43.222;27.874;2022-08-03T01:36:57;101091.41;;;20.28;100.00
50242;BME280;36126;43.222;27.874;2022-08-03T01:39:26;101096.81;;;20.25;100.00
50242;BME280;36126;43.222;27.874;2022-08-03T01:41:56;101086.78;;;20.03;100.00
50242;BME280;36126;43.222;27.874;2022-08-03T01:44:25;101076.09;;;20.00;100.00
50242;BME280;36126;43.222;27.874;2022-08-03T01:46:57;101092.16;;;19.99;100.00
50242;BME280;36126;43.222;27.874;2022-08-03T01:49:24;101102.53;;;20.09;100.00
50242;BME280;36126;43.222;27.874;2022-08-03T01:51:51;101095.19;;;20.13;100.00
50242;BME280;36126;43.222;27.874;2022-08-03T01:54:19;101065.34;;;20.02;100.00
50242;BME280;36126;43.222;27.874;2022-08-03T01:56:47;101078.78;;;20.20;100.00
50242;BME280;36126;43.222;27.874;2022-08-03T01:59:16;101081.81;;;20.29;100.00
50242;BME280;36126;43.222;27.874;2022-08-03T02:01:43;101085.75;;;20.33;100.00
50242;BME280;36126;43.222;27.874;2022-08-03T02:04:13;101086.28;;;20.35;100.00
50242;BME280;36126;43.222;27.874;2022-08-03T02:06:42;101093.63;;;20.36;100.00
50242;BME280;36126;43.222;27.874;2022-08-03T02:09:11;101076.41;;;20.38;100.00
50242;BME280;36126;43.222;27.874;2022-08-03T02:11:38;101091.41;;;20.28;100.00
50242;BME280;36126;43.222;27.874;2022-08-03T02:14:05;101070.28;;;19.81;100.00
50242;BME280;36126;43.222;27.874;2022-08-03T02:16:32;101100.06;;;20.02;100.00
50242;BME280;36126;43.222;27.874;2022-08-03T02:19:00;101089.09;;;19.91;100.00
50242;BME280;36126;43.222;27.874;2022-08-03T02:21:29;101072.78;;;19.82;100.00
50242;BME280;36126;43.222;27.874;2022-08-03T02:23:56;101095.53;;;20.07;100.00
50242;BME280;36126;43.222;27.874;2022-08-03T02:26:23;101078.91;;;20.00;100.00
50242;BME280;36126;43.222;27.874;2022-08-03T02:28:51;101090.41;;;20.14;100.00
50242;BME280;36126;43.222;27.874;2022-08-03T02:31:23;101091.91;;;19.96;100.00
50242;BME280;36126;43.222;27.874;2022-08-03T02:33:53;101090.69;;;20.12;100.00
50242;BME280;36126;43.222;27.874;2022-08-03T02:36:28;101087.00;;;20.12;100.00
50242;BME280;36126;43.222;27.874;2022-08-03T02:38:58;101082.84;;;20.04;100.00
50242;BME280;36126;43.222;27.874;2022-08-03T02:41:31;101096.06;;;20.03;100.00
50242;BME280;36126;43.222;27.874;2022-08-03T02:43:59;101096.19;;;19.78;100.00
50242;BME280;36126;43.222;27.874;2022-08-03T02:46:31;101092.81;;;19.81;100.00
50242;BME280;36126;43.222;27.874;2022-08-03T02:48:59;101093.13;;;19.69;100.00
50242;BME280;36126;43.222;27.874;2022-08-03T02:51:29;101092.00;;;19.65;100.00
50242;BME280;36126;43.222;27.874;2022-08-03T02:53:55;101064.47;;;19.41;100.00
50242;BME280;36126;43.222;27.874;2022-08-03T02:56:23;101090.38;;;19.48;100.00
50242;BME280;36126;43.222;27.874;2022-08-03T02:58:50;101094.81;;;19.70;100.00
50242;BME280;36126;43.222;27.874;2022-08-03T03:01:19;101095.72;;;19.55;100.00
50242;BME280;36126;43.222;27.874;2022-08-03T03:03:46;101093.19;;;19.53;100.00
50242;BME280;36126;43.222;27.874;2022-08-03T03:06:15;101079.09;;;19.53;100.00
50242;BME280;36126;43.222;27.874;2022-08-03T03:08:41;101091.94;;;19.91;100.00
50242;BME280;36126;43.222;27.874;2022-08-03T03:11:07;101094.19;;;19.88;100.00
50242;BME280;36126;43.222;27.874;2022-08-03T03:13:35;101082.16;;;19.62;100.00
50242;BME280;36126;43.222;27.874;2022-08-03T03:16:03;101103.78;;;19.87;100.00
50242;BME280;36126;43.222;27.874;2022-08-03T03:18:32;101078.47;;;19.72;100.00
50242;BME280;36126;43.222;27.874;2022-08-03T03:21:00;101083.59;;;19.54;100.00
50242;BME280;36126;43.222;27.874;2022-08-03T03:23:27;101109.78;;;19.65;100.00
50242;BME280;36126;43.222;27.874;2022-08-03T03:25:54;101103.78;;;19.77;100.00
50242;BME280;36126;43.222;27.874;2022-08-03T03:28:22;101110.44;;;20.12;100.00
50242;BME280;36126;43.222;27.874;2022-08-03T03:30:48;101084.94;;;20.28;100.00
50242;BME280;36126;43.222;27.874;2022-08-03T03:33:14;101109.03;;;20.49;100.00
50242;BME280;36126;43.222;27.874;2022-08-03T03:35:41;101102.50;;;20.59;100.00
50242;BME280;36126;43.222;27.874;2022-08-03T03:38:07;101114.56;;;20.70;100.00
50242;BME280;36126;43.222;27.874;2022-08-03T03:40:36;101117.34;;;20.75;100.00
50242;BME280;36126;43.222;27.874;2022-08-03T03:43:03;101108.28;;;20.78;100.00
50242;BME280;36126;43.222;27.874;2022-08-03T03:45:33;101117.84;;;20.82;100.00
50242;BME280;36126;43.222;27.874;2022-08-03T03:48:00;101099.81;;;20.78;100.00
50242;BME280;36126;43.222;27.874;2022-08-03T03:50:27;101113.56;;;20.90;100.00
50242;BME280;36126;43.222;27.874;2022-08-03T03:52:54;101115.41;;;21.05;100.00
50242;BME280;36126;43.222;27.874;2022-08-03T03:55:19;101112.16;;;21.17;100.00
50242;BME280;36126;43.222;27.874;2022-08-03T03:57:45;101114.47;;;21.39;100.00
50242;BME280;36126;43.222;27.874;2022-08-03T04:00:12;101115.56;;;21.43;100.00
50242;BME280;36126;43.222;27.874;2022-08-03T04:02:38;101092.47;;;21.36;100.00
50242;BME280;36126;43.222;27.874;2022-08-03T04:05:04;101112.88;;;21.57;100.00
50242;BME280;36126;43.222;27.874;2022-08-03T04:10:38;101124.19;;;21.57;100.00
50242;BME280;36126;43.222;27.874;2022-08-03T04:13:29;101131.56;;;21.82;100.00
50242;BME280;36126;43.222;27.874;2022-08-03T04:15:56;101115.88;;;21.71;100.00
50242;BME280;36126;43.222;27.874;2022-08-03T04:18:26;101129.09;;;21.76;100.00
50242;BME280;36126;43.222;27.874;2022-08-03T04:20:54;101131.47;;;21.87;100.00
50242;BME280;36126;43.222;27.874;2022-08-03T04:23:24;101113.59;;;21.92;100.00
50242;BME280;36126;43.222;27.874;2022-08-03T04:25:52;101122.03;;;21.97;100.00
50242;BME280;36126;43.222;27.874;2022-08-03T04:28:19;101110.47;;;21.94;100.00
50242;BME280;36126;43.222;27.874;2022-08-03T04:30:47;101105.44;;;22.09;100.00
50242;BME280;36126;43.222;27.874;2022-08-03T04:33:15;101110.41;;;22.18;100.00
50242;BME280;36126;43.222;27.874;2022-08-03T04:35:42;101110.34;;;22.23;100.00
50242;BME280;36126;43.222;27.874;2022-08-03T04:38:12;101120.97;;;22.31;100.00
50242;BME280;36126;43.222;27.874;2022-08-03T04:40:40;101130.94;;;22.67;100.00
50242;BME280;36126;43.222;27.874;2022-08-03T04:43:08;101119.75;;;23.97;100.00
50242;BME280;36126;43.222;27.874;2022-08-03T04:45:34;101119.25;;;25.85;100.00
50242;BME280;36126;43.222;27.874;2022-08-03T04:48:01;101122.13;;;27.90;100.00
50242;BME280;36126;43.222;27.874;2022-08-03T04:50:27;101109.63;;;29.22;100.00
50242;BME280;36126;43.222;27.874;2022-08-03T04:52:54;101127.00;;;30.49;100.00
50242;BME280;36126;43.222;27.874;2022-08-03T04:55:28;101123.00;;;31.38;100.00
50242;BME280;36126;43.222;27.874;2022-08-03T04:57:54;101098.28;;;31.50;100.00
50242;BME280;36126;43.222;27.874;2022-08-03T05:00:20;101130.50;;;30.99;100.00
50242;BME280;36126;43.222;27.874;2022-08-03T05:02:45;101123.97;;;31.91;100.00
50242;BME280;36126;43.222;27.874;2022-08-03T05:05:11;101131.38;;;32.43;100.00
50242;BME280;36126;43.222;27.874;2022-08-03T05:07:37;101125.41;;;33.11;100.00
50242;BME280;36126;43.222;27.874;2022-08-03T05:10:07;101134.25;;;32.63;100.00
50242;BME280;36126;43.222;27.874;2022-08-03T05:12:33;101126.63;;;33.52;100.00
50242;BME280;36126;43.222;27.874;2022-08-03T05:15:00;101114.66;;;32.68;100.00
50242;BME280;36126;43.222;27.874;2022-08-03T05:17:26;101110.13;;;33.49;100.00
50242;BME280;36126;43.222;27.874;2022-08-03T05:19:52;101133.91;;;30.48;100.00
50242;BME280;36126;43.222;27.874;2022-08-03T05:22:19;101134.81;;;28.31;100.00
50242;BME280;36126;43.222;27.874;2022-08-03T05:24:44;101128.88;;;28.37;100.00
50242;BME280;36126;43.222;27.874;2022-08-03T05:27:10;101141.69;;;30.88;100.00
50242;BME280;36126;43.222;27.874;2022-08-03T05:29:42;101125.53;;;31.56;100.00
50242;BME280;36126;43.222;27.874;2022-08-03T05:32:07;101126.50;;;28.69;100.00
50242;BME280;36126;43.222;27.874;2022-08-03T05:34:33;101134.06;;;30.80;100.00
50242;BME280;36126;43.222;27.874;2022-08-03T05:36:59;101139.09;;;32.39;100.00
50242;BME280;36126;43.222;27.874;2022-08-03T05:39:24;101144.34;;;30.03;100.00
50242;BME280;36126;43.222;27.874;2022-08-03T05:41:50;101155.94;;;29.02;100.00
50242;BME280;36126;43.222;27.874;2022-08-03T05:44:15;101133.91;;;30.89;100.00
50242;BME280;36126;43.222;27.874;2022-08-03T05:46:41;101137.28;;;30.13;100.00
50242;BME280;36126;43.222;27.874;2022-08-03T05:49:06;101136.13;;;31.08;100.00
50242;BME280;36126;43.222;27.874;2022-08-03T05:51:32;101141.28;;;31.94;100.00
50242;BME280;36126;43.222;27.874;2022-08-03T05:53:58;101146.28;;;30.64;100.00
50242;BME280;36126;43.222;27.874;2022-08-03T05:56:23;101146.38;;;30.15;100.00
50242;BME280;36126;43.222;27.874;2022-08-03T05:58:52;101155.19;;;30.47;100.00
50242;BME280;36126;43.222;27.874;2022-08-03T06:01:18;101147.19;;;29.78;100.00
50242;BME280;36126;43.222;27.874;2022-08-03T06:03:47;101148.59;;;30.34;100.00
50242;BME280;36126;43.222;27.874;2022-08-03T06:06:13;101154.00;;;30.23;100.00
50242;BME280;36126;43.222;27.874;2022-08-03T06:08:39;101153.59;;;30.62;100.00
50242;BME280;36126;43.222;27.874;2022-08-03T06:11:05;101152.41;;;31.80;100.00
50242;BME280;36126;43.222;27.874;2022-08-03T06:13:31;101156.88;;;32.64;96.12
50242;BME280;36126;43.222;27.874;2022-08-03T06:15:57;101159.72;;;31.17;100.00
50242;BME280;36126;43.222;27.874;2022-08-03T06:18:22;101149.44;;;32.44;97.24
50242;BME280;36126;43.222;27.874;2022-08-03T06:20:49;101144.25;;;31.82;100.00
50242;BME280;36126;43.222;27.874;2022-08-03T06:23:15;101152.06;;;31.65;98.02
50242;BME280;36126;43.222;27.874;2022-08-03T06:25:41;101152.28;;;33.18;91.79
50242;BME280;36126;43.222;27.874;2022-08-03T06:28:07;101155.41;;;33.10;89.62
50242;BME280;36126;43.222;27.874;2022-08-03T06:30:32;101151.75;;;33.55;86.83
50242;BME280;36126;43.222;27.874;2022-08-03T06:32:58;101152.59;;;32.94;88.46
50242;BME280;36126;43.222;27.874;2022-08-03T06:35:24;101148.31;;;33.69;87.13
50242;BME280;36126;43.222;27.874;2022-08-03T06:37:53;101160.63;;;33.04;89.36
50242;BME280;36126;43.222;27.874;2022-08-03T06:40:20;101145.88;;;31.35;95.54
50242;BME280;36126;43.222;27.874;2022-08-03T06:43:06;101144.03;;;31.43;98.42
50242;BME280;36126;43.222;27.874;2022-08-03T06:45:33;101146.91;;;31.43;97.58
50242;BME280;36126;43.222;27.874;2022-08-03T06:50:25;101141.38;;;28.95;100.00
50242;BME280;36126;43.222;27.874;2022-08-03T06:52:50;101140.94;;;28.21;100.00
50242;BME280;36126;43.222;27.874;2022-08-03T06:55:16;101135.72;;;28.23;100.00
50242;BME280;36126;43.222;27.874;2022-08-03T06:57:42;101127.31;;;27.88;100.00
50242;BME280;36126;43.222;27.874;2022-08-03T07:00:08;101140.66;;;27.75;100.00
50242;BME280;36126;43.222;27.874;2022-08-03T07:02:34;101135.94;;;27.79;100.00
50242;BME280;36126;43.222;27.874;2022-08-03T07:04:59;101146.72;;;27.74;100.00
50242;BME280;36126;43.222;27.874;2022-08-03T07:07:25;101125.63;;;27.57;100.00
50242;BME280;36126;43.222;27.874;2022-08-03T07:09:51;101136.75;;;27.80;100.00
50242;BME280;36126;43.222;27.874;2022-08-03T07:12:16;101147.09;;;27.63;100.00
50242;BME280;36126;43.222;27.874;2022-08-03T07:14:42;101127.78;;;27.60;100.00
50242;BME280;36126;43.222;27.874;2022-08-03T07:17:07;101144.97;;;27.90;100.00
50242;BME280;36126;43.222;27.874;2022-08-03T07:19:33;101147.25;;;28.06;100.00
50242;BME280;36126;43.222;27.874;2022-08-03T07:21:58;101126.44;;;27.66;100.00
50242;BME280;36126;43.222;27.874;2022-08-03T07:24:24;101154.22;;;27.87;100.00
50242;BME280;36126;43.222;27.874;2022-08-03T07:26:49;101146.22;;;27.72;100.00
50242;BME280;36126;43.222;27.874;2022-08-03T07:29:15;101133.31;;;27.65;100.00
50242;BME280;36126;43.222;27.874;2022-08-03T07:31:40;101159.03;;;28.04;100.00
50242;BME280;36126;43.222;27.874;2022-08-03T07:34:06;101162.97;;;27.82;100.00
50242;BME280;36126;43.222;27.874;2022-08-03T07:36:32;101151.81;;;27.59;100.00
50242;BME280;36126;43.222;27.874;2022-08-03T07:38:57;101151.31;;;27.57;100.00
50242;BME280;36126;43.222;27.874;2022-08-03T07:41:23;101142.88;;;27.70;100.00
50242;BME280;36126;43.222;27.874;2022-08-03T07:43:49;101156.38;;;27.90;100.00
50242;BME280;36126;43.222;27.874;2022-08-03T07:46:14;101168.44;;;27.96;100.00
50242;BME280;36126;43.222;27.874;2022-08-03T07:48:40;101158.34;;;27.98;100.00
50242;BME280;36126;43.222;27.874;2022-08-03T07:51:06;101151.66;;;27.94;100.00
50242;BME280;36126;43.222;27.874;2022-08-03T07:53:31;101163.06;;;27.94;100.00
50242;BME280;36126;43.222;27.874;2022-08-03T07:55:58;101135.00;;;28.05;100.00
50242;BME280;36126;43.222;27.874;2022-08-03T07:58:24;101154.47;;;28.33;96.89
50242;BME280;36126;43.222;27.874;2022-08-03T08:00:49;101154.03;;;28.22;98.56
50242;BME280;36126;43.222;27.874;2022-08-03T08:03:17;101158.28;;;28.16;95.63
50242;BME280;36126;43.222;27.874;2022-08-03T08:05:43;101144.34;;;27.76;96.59
50242;BME280;36126;43.222;27.874;2022-08-03T08:08:09;101163.59;;;28.26;97.09
50242;BME280;36126;43.222;27.874;2022-08-03T08:10:35;101161.25;;;28.49;95.48
50242;BME280;36126;43.222;27.874;2022-08-03T08:13:01;101167.63;;;28.25;96.22
50242;BME280;36126;43.222;27.874;2022-08-03T08:15:27;101167.88;;;28.11;98.26
50242;BME280;36126;43.222;27.874;2022-08-03T08:17:55;101164.56;;;28.30;99.98
50242;BME280;36126;43.222;27.874;2022-08-03T08:20:24;101152.59;;;28.37;98.37
50242;BME280;36126;43.222;27.874;2022-08-03T08:22:49;101158.22;;;28.25;97.11
50242;BME280;36126;43.222;27.874;2022-08-03T08:25:15;101163.47;;;28.44;93.91
50242;BME280;36126;43.222;27.874;2022-08-03T08:27:46;101155.38;;;28.46;94.20
50242;BME280;36126;43.222;27.874;2022-08-03T08:30:14;101171.53;;;28.72;94.93
50242;BME280;36126;43.222;27.874;2022-08-03T08:32:39;101157.59;;;28.70;92.63
50242;BME280;36126;43.222;27.874;2022-08-03T08:35:06;101171.09;;;28.82;92.36
50242;BME280;36126;43.222;27.874;2022-08-03T08:37:32;101166.97;;;28.71;87.74
50242;BME280;36126;43.222;27.874;2022-08-03T08:39:58;101155.19;;;28.72;86.15
50242;BME280;36126;43.222;27.874;2022-08-03T08:42:24;101151.78;;;28.79;88.60
50242;BME280;36126;43.222;27.874;2022-08-03T08:44:50;101169.50;;;28.93;90.16
50242;BME280;36126;43.222;27.874;2022-08-03T08:47:18;101152.66;;;28.92;88.33
50242;BME280;36126;43.222;27.874;2022-08-03T08:49:45;101163.53;;;28.98;89.56
50242;BME280;36126;43.222;27.874;2022-08-03T08:52:12;101142.38;;;29.12;91.04
50242;BME280;36126;43.222;27.874;2022-08-03T08:54:40;101157.91;;;29.23;89.48
50242;BME280;36126;43.222;27.874;2022-08-03T08:57:06;101152.41;;;28.84;86.35
50242;BME280;36126;43.222;27.874;2022-08-03T08:59:33;101153.97;;;29.15;87.70
50242;BME280;36126;43.222;27.874;2022-08-03T09:01:59;101159.75;;;29.28;84.47
50242;BME280;36126;43.222;27.874;2022-08-03T09:04:27;101159.03;;;29.31;84.05
50242;BME280;36126;43.222;27.874;2022-08-03T09:06:52;101146.16;;;29.37;79.99
50242;BME280;36126;43.222;27.874;2022-08-03T09:09:18;101149.66;;;29.55;80.44
50242;BME280;36126;43.222;27.874;2022-08-03T09:11:43;101154.66;;;29.33;79.92
50242;BME280;36126;43.222;27.874;2022-08-03T09:14:10;101136.91;;;29.19;78.60
50242;BME280;36126;43.222;27.874;2022-08-03T09:16:35;101150.56;;;29.01;80.68
50242;BME280;36126;43.222;27.874;2022-08-03T09:19:12;101153.03;;;29.24;80.65
50242;BME280;36126;43.222;27.874;2022-08-03T09:21:38;101133.06;;;29.02;81.98
50242;BME280;36126;43.222;27.874;2022-08-03T09:24:05;101137.22;;;29.05;82.39
50242;BME280;36126;43.222;27.874;2022-08-03T09:26:35;101148.41;;;29.31;84.58
50242;BME280;36126;43.222;27.874;2022-08-03T09:29:06;101145.91;;;29.30;81.68
50242;BME280;36126;43.222;27.874;2022-08-03T09:31:42;101133.28;;;29.31;80.43
50242;BME280;36126;43.222;27.874;2022-08-03T09:34:10;101138.69;;;29.45;78.18
50242;BME280;36126;43.222;27.874;2022-08-03T09:36:48;101156.06;;;29.40;72.55
50242;BME280;36126;43.222;27.874;2022-08-03T09:39:25;101141.63;;;29.36;73.28
50242;BME280;36126;43.222;27.874;2022-08-03T09:42:13;101140.44;;;29.37;74.48
50242;BME280;36126;43.222;27.874;2022-08-03T09:44:44;101149.28;;;29.57;73.62
50242;BME280;36126;43.222;27.874;2022-08-03T09:47:12;101129.47;;;29.06;71.88
50242;BME280;36126;43.222;27.874;2022-08-03T09:49:39;101140.09;;;29.39;73.53
50242;BME280;36126;43.222;27.874;2022-08-03T09:52:18;101125.81;;;29.51;73.76
50242;BME280;36126;43.222;27.874;2022-08-03T09:54:52;101135.13;;;29.73;72.40
50242;BME280;36126;43.222;27.874;2022-08-03T09:57:26;101139.78;;;29.77;71.04
50242;BME280;36126;43.222;27.874;2022-08-03T09:59:53;101126.06;;;29.46;70.81
50242;BME280;36126;43.222;27.874;2022-08-03T10:02:29;101121.03;;;29.43;69.80
50242;BME280;36126;43.222;27.874;2022-08-03T10:04:54;101130.84;;;29.66;73.31
50242;BME280;36126;43.222;27.874;2022-08-03T10:07:22;101141.81;;;29.77;70.74
50242;BME280;36126;43.222;27.874;2022-08-03T10:10:00;101114.59;;;29.71;71.07
50242;BME280;36126;43.222;27.874;2022-08-03T10:12:26;101130.16;;;29.94;72.26
50242;BME280;36126;43.222;27.874;2022-08-03T10:14:52;101131.81;;;29.95;70.88
50242;BME280;36126;43.222;27.874;2022-08-03T10:17:20;101133.44;;;29.72;71.03
50242;BME280;36126;43.222;27.874;2022-08-03T10:19:46;101136.81;;;29.74;70.21
50242;BME280;36126;43.222;27.874;2022-08-03T10:22:23;101123.44;;;29.78;69.46
50242;BME280;36126;43.222;27.874;2022-08-03T10:25:07;101127.75;;;29.96;69.51
50242;BME280;36126;43.222;27.874;2022-08-03T10:27:33;101116.81;;;29.98;70.93
50242;BME280;36126;43.222;27.874;2022-08-03T10:30:01;101117.09;;;30.22;71.56
50242;BME280;36126;43.222;27.874;2022-08-03T10:35:10;101109.59;;;29.67;100.00
50242;BME280;36126;43.222;27.874;2022-08-03T10:37:41;101130.59;;;29.59;100.00
50242;BME280;36126;43.222;27.874;2022-08-03T10:40:14;101115.06;;;29.48;100.00
50242;BME280;36126;43.222;27.874;2022-08-03T10:42:42;101101.16;;;29.71;100.00
50242;BME280;36126;43.222;27.874;2022-08-03T10:45:20;101100.63;;;29.44;100.00
50242;BME280;36126;43.222;27.874;2022-08-03T10:47:49;101094.22;;;29.14;100.00
50242;BME280;36126;43.222;27.874;2022-08-03T10:50:17;101106.97;;;29.38;100.00
50242;BME280;36126;43.222;27.874;2022-08-03T10:53:00;101093.03;;;29.15;100.00
50242;BME280;36126;43.222;27.874;2022-08-03T11:01:06;101102.22;;;29.66;100.00
50242;BME280;36126;43.222;27.874;2022-08-03T11:03:32;101089.69;;;29.46;100.00
50242;BME280;36126;43.222;27.874;2022-08-03T11:06:15;101107.44;;;29.52;100.00
50242;BME280;36126;43.222;27.874;2022-08-03T11:08:44;101094.91;;;29.57;100.00
50242;BME280;36126;43.222;27.874;2022-08-03T11:14:04;101096.00;;;29.52;100.00
50242;BME280;36126;43.222;27.874;2022-08-03T11:16:32;101076.97;;;29.23;100.00
50242;BME280;36126;43.222;27.874;2022-08-03T11:19:06;101090.09;;;29.24;100.00
50242;BME280;36126;43.222;27.874;2022-08-03T11:30:08;101081.78;;;28.85;100.00
50242;BME280;36126;43.222;27.874;2022-08-03T11:40:53;101086.81;;;29.00;100.00
50242;BME280;36126;43.222;27.874;2022-08-03T11:48:38;101070.38;;;29.10;100.00
50242;BME280;36126;43.222;27.874;2022-08-03T11:51:06;101080.25;;;29.00;100.00
50242;BME280;36126;43.222;27.874;2022-08-03T11:53:43;101086.03;;;28.79;100.00
50242;BME280;36126;43.222;27.874;2022-08-03T11:56:08;101073.75;;;28.57;100.00
50242;BME280;36126;43.222;27.874;2022-08-03T11:58:34;101078.63;;;28.78;100.00
50242;BME280;36126;43.222;27.874;2022-08-03T12:01:04;101077.28;;;28.96;100.00
50242;BME280;36126;43.222;27.874;2022-08-03T12:03:34;101074.41;;;28.96;100.00
50242;BME280;36126;43.222;27.874;2022-08-03T12:06:00;101061.09;;;29.00;100.00
50242;BME280;36126;43.222;27.874;2022-08-03T12:10:53;101073.66;;;28.87;100.00
50242;BME280;36126;43.222;27.874;2022-08-03T12:13:20;101073.63;;;28.75;100.00
50242;BME280;36126;43.222;27.874;2022-08-03T12:15:54;101046.59;;;28.51;100.00
50242;BME280;36126;43.222;27.874;2022-08-03T12:18:21;101083.28;;;28.70;100.00
50242;BME280;36126;43.222;27.874;2022-08-03T12:20:49;101066.78;;;28.88;100.00
50242;BME280;36126;43.222;27.874;2022-08-03T12:23:15;101058.00;;;28.72;100.00
50242;BME280;36126;43.222;27.874;2022-08-03T12:25:42;101062.69;;;28.77;100.00
50242;BME280;36126;43.222;27.874;2022-08-03T12:28:17;101069.69;;;28.79;100.00
50242;BME280;36126;43.222;27.874;2022-08-03T12:30:45;101083.47;;;28.44;100.00
50242;BME280;36126;43.222;27.874;2022-08-03T12:33:16;101065.66;;;28.26;100.00
50242;BME280;36126;43.222;27.874;2022-08-03T12:45:51;101066.91;;;28.16;100.00
50242;BME280;36126;43.222;27.874;2022-08-03T12:48:16;101066.56;;;28.17;100.00
50242;BME280;36126;43.222;27.874;2022-08-03T12:50:42;101077.88;;;28.47;100.00
50242;BME280;36126;43.222;27.874;2022-08-03T12:53:08;101070.16;;;28.27;100.00
50242;BME280;36126;43.222;27.874;2022-08-03T12:55:35;101032.28;;;28.17;100.00
50242;BME280;36126;43.222;27.874;2022-08-03T12:58:03;101053.66;;;28.32;100.00
50242;BME280;36126;43.222;27.874;2022-08-03T13:00:30;101042.91;;;28.50;100.00
50242;BME280;36126;43.222;27.874;2022-08-03T13:03:04;101062.00;;;28.38;100.00
50242;BME280;36126;43.222;27.874;2022-08-03T13:05:31;101067.28;;;28.27;100.00
50242;BME280;36126;43.222;27.874;2022-08-03T13:08:17;101063.09;;;28.03;100.00
50242;BME280;36126;43.222;27.874;2022-08-03T13:10:44;101057.63;;;28.19;100.00
50242;BME280;36126;43.222;27.874;2022-08-03T13:13:10;101059.16;;;28.16;100.00
50242;BME280;36126;43.222;27.874;2022-08-03T13:15:36;101063.69;;;28.17;100.00
50242;BME280;36126;43.222;27.874;2022-08-03T13:18:02;101070.31;;;28.30;100.00
50242;BME280;36126;43.222;27.874;2022-08-03T13:20:29;101068.84;;;28.24;100.00
50242;BME280;36126;43.222;27.874;2022-08-03T13:22:55;101066.75;;;28.33;100.00
50242;BME280;36126;43.222;27.874;2022-08-03T13:25:21;101046.47;;;28.26;100.00
50242;BME280;36126;43.222;27.874;2022-08-03T13:27:48;101066.66;;;28.21;100.00
50242;BME280;36126;43.222;27.874;2022-08-03T13:30:14;101066.97;;;28.28;100.00
50242;BME280;36126;43.222;27.874;2022-08-03T13:32:40;101062.63;;;28.43;100.00
50242;BME280;36126;43.222;27.874;2022-08-03T13:35:06;101086.84;;;28.67;100.00
50242;BME280;36126;43.222;27.874;2022-08-03T13:37:32;101076.63;;;28.36;100.00
50242;BME280;36126;43.222;27.874;2022-08-03T13:39:58;101063.81;;;28.42;100.00
50242;BME280;36126;43.222;27.874;2022-08-03T13:42:24;101073.69;;;28.45;100.00